createdAt,value
2019-02-12T00:00:50.889Z,0
2019-02-12T00:01:50.961Z,0
2019-02-12T00:02:51.117Z,0
2019-02-12T00:03:51.054Z,0
2019-02-12T00:04:51.086Z,0
2019-02-12T00:05:50.962Z,0
2019-02-12T00:06:50.864Z,0
2019-02-12T00:07:51.013Z,0
2019-02-12T00:08:51.060Z,0
2019-02-12T00:09:50.966Z,0
2019-02-12T00:10:50.959Z,0
2019-02-12T00:11:50.947Z,0
2019-02-12T00:12:51.004Z,0
2019-02-12T00:13:50.992Z,0
2019-02-12T00:14:50.546Z,0
2019-02-12T00:15:50.896Z,0
2019-02-12T00:16:50.280Z,0
2019-02-12T00:17:49.755Z,0
2019-02-12T00:18:50.213Z,0
2019-02-12T00:19:50.191Z,0
2019-02-12T00:20:50.414Z,0
2019-02-12T00:21:50.396Z,0
2019-02-12T00:22:50.138Z,0
2019-02-12T00:23:50.363Z,0
2019-02-12T00:24:50.095Z,0
2019-02-12T00:25:50.103Z,0
2019-02-12T00:26:50.349Z,0
2019-02-12T00:27:50.774Z,0
2019-02-12T00:28:50.266Z,0
2019-02-12T00:29:49.756Z,0
2019-02-12T00:30:50.243Z,0
2019-02-12T00:31:50.022Z,0
2019-02-12T00:32:50.198Z,0
2019-02-12T00:33:50.169Z,0
2019-02-12T00:34:50.238Z,0
2019-02-12T00:35:50.150Z,0
2019-02-12T00:36:49.926Z,0
2019-02-12T00:37:50.116Z,0
2019-02-12T00:38:50.068Z,0
2019-02-12T00:39:49.816Z,0
2019-02-12T00:40:49.789Z,0
2019-02-12T00:41:50.041Z,0
2019-02-12T00:42:50.028Z,0
2019-02-12T00:43:49.995Z,0
2019-02-12T00:44:49.725Z,0
2019-02-12T00:45:49.716Z,0
2019-02-12T00:46:49.917Z,0
2019-02-12T00:47:49.907Z,0
2019-02-12T00:48:49.894Z,0
2019-02-12T00:49:49.614Z,0
2019-02-12T00:50:49.849Z,0
2019-02-12T00:51:50.008Z,0
2019-02-12T00:52:49.820Z,0
2019-02-12T00:53:49.827Z,0
2019-02-12T00:54:49.790Z,0
2019-02-12T00:55:49.785Z,0
2019-02-12T00:56:49.506Z,0
2019-02-12T00:57:49.778Z,0
2019-02-12T00:58:49.702Z,0
2019-02-12T00:59:49.680Z,0
2019-02-12T01:00:49.674Z,0
2019-02-12T01:01:49.651Z,0
2019-02-12T01:02:49.394Z,0
2019-02-12T01:03:49.597Z,0
2019-02-12T01:04:49.082Z,0
2019-02-12T01:05:49.559Z,0
2019-02-12T01:06:49.545Z,0
2019-02-12T01:07:49.523Z,0
2019-02-12T01:08:49.257Z,0
2019-02-12T01:09:49.238Z,0
2019-02-12T01:10:49.487Z,0
2019-02-12T01:11:49.445Z,0
2019-02-12T01:12:49.187Z,0
2019-02-12T01:13:49.473Z,0
2019-02-12T01:14:49.386Z,0
2019-02-12T01:15:49.368Z,0
2019-02-12T01:16:49.417Z,0
2019-02-12T01:17:49.099Z,0
2019-02-12T01:18:49.326Z,0
2019-02-12T01:19:49.296Z,0
2019-02-12T01:20:49.304Z,0
2019-02-12T01:21:49.260Z,0
2019-02-12T01:22:48.998Z,0
2019-02-12T01:23:49.253Z,0
2019-02-12T01:24:49.210Z,0
2019-02-12T01:25:49.199Z,0
2019-02-12T01:26:49.215Z,0
2019-02-12T01:27:49.159Z,0
2019-02-12T01:28:48.882Z,0
2019-02-12T01:29:49.115Z,0
2019-02-12T01:30:49.094Z,0
2019-02-12T01:31:48.846Z,0
2019-02-12T01:32:49.229Z,0
2019-02-12T01:33:49.078Z,0
2019-02-12T01:34:48.782Z,0
2019-02-12T01:35:48.755Z,0
2019-02-12T01:36:48.973Z,0
2019-02-12T01:37:48.965Z,0
2019-02-12T01:38:48.951Z,0
2019-02-12T01:39:48.918Z,0
2019-02-12T01:40:50.571Z,0
2019-02-12T01:41:48.873Z,0
2019-02-12T01:42:48.613Z,0
2019-02-12T01:43:48.599Z,0
2019-02-12T01:44:48.821Z,0
2019-02-12T01:45:48.816Z,0
2019-02-12T01:46:48.538Z,0
2019-02-12T01:47:48.778Z,0
2019-02-12T01:48:48.762Z,0
2019-02-12T01:49:48.496Z,0
2019-02-12T01:50:48.732Z,0
2019-02-12T01:51:48.722Z,0
2019-02-12T01:52:48.785Z,0
2019-02-12T01:53:48.658Z,0
2019-02-12T01:54:48.643Z,0
2019-02-12T01:55:48.624Z,0
2019-02-12T01:56:48.596Z,0
2019-02-12T01:57:48.338Z,0
2019-02-12T01:58:48.344Z,0
2019-02-12T01:59:48.534Z,0
2019-02-12T02:00:48.543Z,0
2019-02-12T02:01:48.499Z,0
2019-02-12T02:02:48.553Z,0
2019-02-12T02:03:48.466Z,0
2019-02-12T02:04:48.444Z,0
2019-02-12T02:05:48.425Z,0
2019-02-12T02:06:48.406Z,0
2019-02-12T02:07:48.392Z,0
2019-02-12T02:08:47.869Z,0
2019-02-12T02:09:48.353Z,0
2019-02-12T02:10:48.436Z,0
2019-02-12T02:11:48.091Z,0
2019-02-12T02:12:48.055Z,0
2019-02-12T02:13:48.289Z,0
2019-02-12T02:14:48.256Z,0
2019-02-12T02:15:47.997Z,0
2019-02-12T02:16:48.213Z,0
2019-02-12T02:17:48.204Z,0
2019-02-12T02:18:48.176Z,0
2019-02-12T02:19:48.163Z,0
2019-02-12T02:20:48.144Z,0
2019-02-12T02:21:53.605Z,0
2019-02-12T02:22:48.123Z,0
2019-02-12T02:23:48.123Z,0
2019-02-12T02:24:47.567Z,0
2019-02-12T02:25:48.042Z,0
2019-02-12T02:26:47.773Z,0
2019-02-12T02:27:48.006Z,0
2019-02-12T02:28:47.987Z,0
2019-02-12T02:29:47.715Z,0
2019-02-12T02:30:47.722Z,0
2019-02-12T02:31:47.940Z,0
2019-02-12T02:32:47.944Z,0
2019-02-12T02:33:47.911Z,0
2019-02-12T02:34:47.905Z,0
2019-02-12T02:35:47.884Z,0
2019-02-12T02:36:47.844Z,0
2019-02-12T02:37:47.323Z,0
2019-02-12T02:38:47.873Z,0
2019-02-12T02:39:47.792Z,0
2019-02-12T02:40:47.773Z,0
2019-02-12T02:41:47.508Z,0
2019-02-12T02:42:47.259Z,0
2019-02-12T02:43:47.702Z,0
2019-02-12T02:44:47.675Z,0
2019-02-12T02:45:47.686Z,0
2019-02-12T02:46:47.656Z,0
2019-02-12T02:47:47.678Z,0
2019-02-12T02:48:47.627Z,0
2019-02-12T02:49:47.618Z,0
2019-02-12T02:50:47.572Z,0
2019-02-12T02:51:56.003Z,0
2019-02-12T02:52:47.538Z,0
2019-02-12T02:53:47.514Z,0
2019-02-12T02:54:47.494Z,0
2019-02-12T02:55:47.485Z,0
2019-02-12T02:56:47.491Z,0
2019-02-12T02:57:47.194Z,0
2019-02-12T02:58:47.418Z,0
2019-02-12T02:59:47.440Z,0
2019-02-12T03:00:47.383Z,0
2019-02-12T03:01:47.352Z,0
2019-02-12T03:02:47.347Z,0
2019-02-12T03:03:47.070Z,0
2019-02-12T03:04:47.305Z,0
2019-02-12T03:05:47.291Z,0
2019-02-12T03:06:47.257Z,0
2019-02-12T03:07:47.291Z,0
2019-02-12T03:08:47.231Z,0
2019-02-12T03:09:46.961Z,0
2019-02-12T03:10:47.191Z,0
2019-02-12T03:11:47.170Z,0
2019-02-12T03:12:47.149Z,0
2019-02-12T03:13:47.116Z,0
2019-02-12T03:14:47.122Z,0
2019-02-12T03:15:47.190Z,0
2019-02-12T03:16:47.095Z,0
2019-02-12T03:17:47.071Z,0
2019-02-12T03:18:47.044Z,0
2019-02-12T03:19:47.027Z,0
2019-02-12T03:20:46.504Z,0
2019-02-12T03:21:47.006Z,0
2019-02-12T03:22:46.957Z,0
2019-02-12T03:23:46.954Z,0
2019-02-12T03:24:46.964Z,0
2019-02-12T03:25:46.903Z,0
2019-02-12T03:26:46.903Z,0
2019-02-12T03:27:46.635Z,0
2019-02-12T03:28:46.593Z,0
2019-02-12T03:29:46.827Z,0
2019-02-12T03:30:46.847Z,0
2019-02-12T03:31:46.822Z,0
2019-02-12T03:32:46.756Z,0
2019-02-12T03:33:46.774Z,0
2019-02-12T03:34:46.719Z,0
2019-02-12T03:35:46.717Z,0
2019-02-12T03:36:46.703Z,0
2019-02-12T03:37:46.185Z,0
2019-02-12T03:38:46.408Z,0
2019-02-12T03:39:46.633Z,0
2019-02-12T03:40:46.628Z,0
2019-02-12T03:41:46.596Z,0
2019-02-12T03:42:46.612Z,0
2019-02-12T03:43:46.579Z,0
2019-02-12T03:44:46.292Z,0
2019-02-12T03:45:46.276Z,0
2019-02-12T03:46:46.272Z,0
2019-02-12T03:47:46.500Z,0
2019-02-12T03:48:46.466Z,0
2019-02-12T03:49:46.450Z,0
2019-02-12T03:50:46.445Z,0
2019-02-12T03:51:46.156Z,0
2019-02-12T03:52:46.142Z,0
2019-02-12T03:53:46.381Z,0
2019-02-12T03:54:46.128Z,0
2019-02-12T03:55:46.325Z,0
2019-02-12T03:56:46.314Z,0
2019-02-12T03:57:46.067Z,0
2019-02-12T03:58:46.267Z,0
2019-02-12T03:59:46.261Z,0
2019-02-12T04:00:45.983Z,0
2019-02-12T04:01:46.232Z,0
2019-02-12T04:02:46.196Z,0
2019-02-12T04:03:46.290Z,0
2019-02-12T04:04:46.159Z,0
2019-02-12T04:05:45.893Z,0
2019-02-12T04:06:46.120Z,0
2019-02-12T04:07:46.106Z,0
2019-02-12T04:08:46.089Z,0
2019-02-12T04:09:46.060Z,0
2019-02-12T04:10:46.077Z,0
2019-02-12T04:11:45.779Z,0
2019-02-12T04:12:45.757Z,0
2019-02-12T04:13:45.740Z,0
2019-02-12T04:14:45.714Z,0
2019-02-12T04:15:45.955Z,0
2019-02-12T04:16:45.711Z,0
2019-02-12T04:17:45.911Z,0
2019-02-12T04:18:45.892Z,0
2019-02-12T04:19:45.885Z,0
2019-02-12T04:20:45.867Z,0
2019-02-12T04:21:45.843Z,0
2019-02-12T04:22:45.818Z,0
2019-02-12T04:23:45.061Z,0
2019-02-12T04:24:45.793Z,0
2019-02-12T04:25:45.760Z,0
2019-02-12T04:26:45.740Z,0
2019-02-12T04:27:45.732Z,0
2019-02-12T04:28:45.725Z,0
2019-02-12T04:29:45.730Z,0
2019-02-12T04:30:45.658Z,0
2019-02-12T04:31:45.638Z,0
2019-02-12T04:32:45.633Z,0
2019-02-12T04:33:45.607Z,0
2019-02-12T04:34:45.601Z,0
2019-02-12T04:35:45.327Z,0
2019-02-12T04:36:45.574Z,0
2019-02-12T04:37:45.540Z,0
2019-02-12T04:38:45.515Z,0
2019-02-12T04:39:45.485Z,0
2019-02-12T04:40:45.507Z,0
2019-02-12T04:41:45.480Z,0
2019-02-12T04:42:45.183Z,0
2019-02-12T04:43:45.419Z,0
2019-02-12T04:44:45.388Z,0
2019-02-12T04:45:45.131Z,0
2019-02-12T04:46:45.373Z,0
2019-02-12T04:47:45.443Z,0
2019-02-12T04:48:45.322Z,0
2019-02-12T04:49:45.050Z,0
2019-02-12T04:50:45.027Z,0
2019-02-12T04:51:45.273Z,0
2019-02-12T04:52:44.999Z,0
2019-02-12T04:53:45.218Z,0
2019-02-12T04:54:45.217Z,0
2019-02-12T04:55:44.935Z,0
2019-02-12T04:56:44.910Z,0
2019-02-12T04:57:45.154Z,0
2019-02-12T04:58:44.891Z,0
2019-02-12T04:59:45.356Z,0
2019-02-12T05:00:45.089Z,0
2019-02-12T05:01:44.831Z,0
2019-02-12T05:02:45.052Z,0
2019-02-12T05:03:44.778Z,0
2019-02-12T05:04:45.008Z,0
2019-02-12T05:05:45.048Z,0
2019-02-12T05:06:44.503Z,0
2019-02-12T05:07:44.977Z,0
2019-02-12T05:08:44.938Z,0
2019-02-12T05:09:44.914Z,0
2019-02-12T05:10:44.891Z,0
2019-02-12T05:11:44.899Z,0
2019-02-12T05:12:44.861Z,0
2019-02-12T05:13:44.871Z,0
2019-02-12T05:14:44.608Z,0
2019-02-12T05:15:44.807Z,0
2019-02-12T05:16:44.546Z,0
2019-02-12T05:17:44.762Z,0
2019-02-12T05:18:44.498Z,0
2019-02-12T05:19:44.469Z,0
2019-02-12T05:20:44.451Z,0
2019-02-12T05:21:44.697Z,0
2019-02-12T05:22:53.194Z,0
2019-02-12T05:23:44.645Z,0
2019-02-12T05:24:44.637Z,0
2019-02-12T05:25:44.630Z,0
2019-02-12T05:26:44.588Z,0
2019-02-12T05:27:44.605Z,0
2019-02-12T05:28:44.545Z,0
2019-02-12T05:29:44.548Z,0
2019-02-12T05:30:44.056Z,0
2019-02-12T05:31:44.494Z,0
2019-02-12T05:32:44.472Z,0
2019-02-12T05:33:44.202Z,0
2019-02-12T05:34:44.551Z,0
2019-02-12T05:35:44.413Z,0
2019-02-12T05:36:44.156Z,0
2019-02-12T05:37:44.375Z,0
2019-02-12T05:38:44.357Z,0
2019-02-12T05:39:44.343Z,0
2019-02-12T05:40:44.326Z,0
2019-02-12T05:41:44.307Z,0
2019-02-12T05:42:44.297Z,0
2019-02-12T05:43:44.258Z,0
2019-02-12T05:44:44.258Z,0
2019-02-12T05:45:44.224Z,0
2019-02-12T05:46:43.962Z,0
2019-02-12T05:47:43.959Z,0
2019-02-12T05:48:44.186Z,0
2019-02-12T05:49:44.138Z,0
2019-02-12T05:50:44.211Z,0
2019-02-12T05:51:44.116Z,0
2019-02-12T05:52:53.202Z,0
2019-02-12T05:53:44.067Z,0
2019-02-12T05:54:43.824Z,0
2019-02-12T05:55:43.837Z,0
2019-02-12T05:56:44.007Z,0
2019-02-12T05:57:43.778Z,0
2019-02-12T05:58:43.969Z,0
2019-02-12T05:59:46.481Z,0
2019-02-12T06:00:43.947Z,0
2019-02-12T06:01:43.916Z,0
2019-02-12T06:02:43.938Z,0
2019-02-12T06:03:43.882Z,0
2019-02-12T06:04:43.854Z,0
2019-02-12T06:05:43.363Z,0
2019-02-12T06:06:43.825Z,0
2019-02-12T06:07:43.817Z,0
2019-02-12T06:08:43.839Z,0
2019-02-12T06:09:43.762Z,0
2019-02-12T06:10:43.740Z,0
2019-02-12T06:11:43.491Z,0
2019-02-12T06:12:43.718Z,0
2019-02-12T06:13:43.691Z,0
2019-02-12T06:14:43.674Z,0
2019-02-12T06:15:43.657Z,0
2019-02-12T06:16:43.381Z,0
2019-02-12T06:17:43.604Z,0
2019-02-12T06:18:43.589Z,0
2019-02-12T06:19:43.081Z,0
2019-02-12T06:20:43.554Z,0
2019-02-12T06:21:43.294Z,0
2019-02-12T06:22:43.256Z,0
2019-02-12T06:23:43.485Z,0
2019-02-12T06:24:43.226Z,5
2019-02-12T06:25:43.501Z,5
2019-02-12T06:26:43.444Z,5
2019-02-12T06:27:43.418Z,5
2019-02-12T06:28:43.388Z,5
2019-02-12T06:29:43.397Z,5
2019-02-12T06:30:44.003Z,5
2019-02-12T06:31:43.340Z,5
2019-02-12T06:32:43.317Z,5
2019-02-12T06:33:42.561Z,5
2019-02-12T06:34:43.284Z,5
2019-02-12T06:35:43.265Z,10
2019-02-12T06:36:43.266Z,10
2019-02-12T06:37:43.234Z,10
2019-02-12T06:38:43.206Z,10
2019-02-12T06:39:43.202Z,10
2019-02-12T06:40:43.167Z,10
2019-02-12T06:41:43.153Z,10
2019-02-12T06:42:43.174Z,10
2019-02-12T06:43:42.889Z,10
2019-02-12T06:44:43.098Z,10
2019-02-12T06:45:43.249Z,10
2019-02-12T06:46:43.079Z,10
2019-02-12T06:47:42.810Z,10
2019-02-12T06:48:43.014Z,10
2019-02-12T06:49:42.745Z,15
2019-02-12T06:50:42.742Z,15
2019-02-12T06:51:42.946Z,20
2019-02-12T06:52:42.937Z,20
2019-02-12T06:53:42.668Z,20
2019-02-12T06:54:42.895Z,20
2019-02-12T06:55:42.627Z,20
2019-02-12T06:56:42.855Z,20
2019-02-12T06:57:44.048Z,20
2019-02-12T06:58:42.572Z,20
2019-02-12T06:59:42.806Z,20
2019-02-12T07:00:42.785Z,15
2019-02-12T07:01:42.530Z,20
2019-02-12T07:02:44.316Z,20
2019-02-12T07:03:42.734Z,20
2019-02-12T07:04:42.704Z,25
2019-02-12T07:05:42.701Z,20
2019-02-12T07:06:42.416Z,15
2019-02-12T07:07:42.672Z,20
2019-02-12T07:08:42.382Z,25
2019-02-12T07:09:42.657Z,30
2019-02-12T07:10:42.585Z,35
2019-02-12T07:11:42.315Z,40
2019-02-12T07:12:42.574Z,30
2019-02-12T07:13:42.528Z,35
2019-02-12T07:14:42.524Z,35
2019-02-12T07:15:42.548Z,35
2019-02-12T07:16:42.476Z,40
2019-02-12T07:17:42.458Z,40
2019-02-12T07:18:42.194Z,45
2019-02-12T07:19:42.169Z,40
2019-02-12T07:20:42.431Z,35
2019-02-12T07:21:42.429Z,30
2019-02-12T07:22:41.861Z,35
2019-02-12T07:23:42.393Z,35
2019-02-12T07:24:42.328Z,45
2019-02-12T07:25:42.305Z,50
2019-02-12T07:26:42.305Z,50
2019-02-12T07:27:42.261Z,55
2019-02-12T07:28:42.241Z,65
2019-02-12T07:29:42.240Z,60
2019-02-12T07:30:41.717Z,45
2019-02-12T07:31:44.205Z,50
2019-02-12T07:32:42.166Z,60
2019-02-12T07:33:42.223Z,65
2019-02-12T07:34:42.123Z,55
2019-02-12T07:35:42.115Z,55
2019-02-12T07:36:43.274Z,60
2019-02-12T07:37:42.080Z,55
2019-02-12T07:38:42.076Z,55
2019-02-12T07:39:42.026Z,55
2019-02-12T07:40:42.014Z,55
2019-02-12T07:41:42.044Z,50
2019-02-12T07:42:42.005Z,55
2019-02-12T07:43:41.958Z,55
2019-02-12T07:44:41.935Z,50
2019-02-12T07:45:41.936Z,60
2019-02-12T07:46:41.923Z,70
2019-02-12T07:47:41.878Z,85
2019-02-12T07:48:41.860Z,115
2019-02-12T07:49:41.591Z,115
2019-02-12T07:50:41.578Z,105
2019-02-12T07:51:41.303Z,125
2019-02-12T07:52:41.800Z,120
2019-02-12T07:53:41.772Z,115
2019-02-12T07:54:41.757Z,100
2019-02-12T07:55:41.721Z,95
2019-02-12T07:56:41.725Z,90
2019-02-12T07:57:41.710Z,95
2019-02-12T07:58:41.672Z,100
2019-02-12T07:59:41.648Z,105
2019-02-12T08:00:41.633Z,90
2019-02-12T08:01:41.635Z,85
2019-02-12T08:02:43.454Z,80
2019-02-12T08:03:41.572Z,85
2019-02-12T08:04:41.575Z,85
2019-02-12T08:05:41.551Z,90
2019-02-12T08:06:41.509Z,95
2019-02-12T08:07:41.568Z,95
2019-02-12T08:08:41.471Z,100
2019-02-12T08:09:41.452Z,90
2019-02-12T08:10:41.453Z,100
2019-02-12T08:11:40.916Z,80
2019-02-12T08:12:41.305Z,90
2019-02-12T08:13:41.375Z,90
2019-02-12T08:14:41.365Z,95
2019-02-12T08:15:41.085Z,105
2019-02-12T08:16:41.316Z,110
2019-02-12T08:17:41.310Z,105
2019-02-12T08:18:41.032Z,110
2019-02-12T08:19:41.269Z,105
2019-02-12T08:20:40.998Z,100
2019-02-12T08:21:41.101Z,100
2019-02-12T08:22:40.973Z,105
2019-02-12T08:23:50.537Z,95
2019-02-12T08:24:40.942Z,105
2019-02-12T08:25:41.153Z,95
2019-02-12T08:26:41.129Z,110
2019-02-12T08:27:41.201Z,95
2019-02-12T08:28:41.116Z,100
2019-02-12T08:29:41.140Z,95
2019-02-12T08:30:40.828Z,95
2019-02-12T08:31:40.794Z,95
2019-02-12T08:32:40.775Z,115
2019-02-12T08:33:40.753Z,130
2019-02-12T08:34:40.983Z,130
2019-02-12T08:35:40.714Z,130
2019-02-12T08:36:40.937Z,145
2019-02-12T08:37:41.574Z,145
2019-02-12T08:38:40.940Z,120
2019-02-12T08:39:40.925Z,115
2019-02-12T08:40:40.646Z,125
2019-02-12T08:41:40.851Z,135
2019-02-12T08:42:40.847Z,140
2019-02-12T08:43:42.508Z,140
2019-02-12T08:44:40.585Z,145
2019-02-12T08:45:40.815Z,130
2019-02-12T08:46:40.744Z,90
2019-02-12T08:47:40.501Z,85
2019-02-12T08:48:40.717Z,85
2019-02-12T08:49:40.710Z,95
2019-02-12T08:50:40.689Z,125
2019-02-12T08:51:40.664Z,140
2019-02-12T08:52:40.651Z,155
2019-02-12T08:53:40.370Z,180
2019-02-12T08:54:40.649Z,175
2019-02-12T08:55:41.679Z,165
2019-02-12T08:56:40.575Z,160
2019-02-12T08:57:40.306Z,175
2019-02-12T08:58:40.543Z,165
2019-02-12T08:59:40.504Z,165
2019-02-12T09:00:40.483Z,175
2019-02-12T09:01:40.464Z,195
2019-02-12T09:02:40.446Z,180
2019-02-12T09:03:40.035Z,170
2019-02-12T09:04:39.947Z,145
2019-02-12T09:05:40.161Z,155
2019-02-12T09:06:40.370Z,160
2019-02-12T09:07:40.372Z,150
2019-02-12T09:08:40.422Z,155
2019-02-12T09:09:40.325Z,190
2019-02-12T09:10:40.302Z,230
2019-02-12T09:11:39.804Z,235
2019-02-12T09:12:40.268Z,215
2019-02-12T09:13:40.253Z,210
2019-02-12T09:14:40.277Z,245
2019-02-12T09:15:40.240Z,220
2019-02-12T09:16:39.695Z,215
2019-02-12T09:17:40.322Z,235
2019-02-12T09:18:39.930Z,225
2019-02-12T09:19:40.148Z,220
2019-02-12T09:20:40.124Z,210
2019-02-12T09:21:40.143Z,220
2019-02-12T09:22:40.197Z,220
2019-02-12T09:23:39.831Z,225
2019-02-12T09:24:39.805Z,240
2019-02-12T09:25:40.041Z,240
2019-02-12T09:26:40.007Z,230
2019-02-12T09:27:39.738Z,225
2019-02-12T09:28:39.967Z,205
2019-02-12T09:29:39.979Z,210
2019-02-12T09:30:39.687Z,230
2019-02-12T09:31:39.924Z,210
2019-02-12T09:32:39.904Z,220
2019-02-12T09:33:39.879Z,240
2019-02-12T09:34:39.866Z,235
2019-02-12T09:35:39.611Z,230
2019-02-12T09:36:39.850Z,220
2019-02-12T09:37:41.192Z,230
2019-02-12T09:38:39.304Z,205
2019-02-12T09:39:39.786Z,230
2019-02-12T09:40:39.018Z,235
2019-02-12T09:41:39.739Z,215
2019-02-12T09:42:39.721Z,225
2019-02-12T09:43:39.697Z,225
2019-02-12T09:44:39.493Z,215
2019-02-12T09:45:39.668Z,190
2019-02-12T09:46:39.728Z,210
2019-02-12T09:47:39.632Z,240
2019-02-12T09:48:39.630Z,230
2019-02-12T09:49:39.605Z,255
2019-02-12T09:50:39.587Z,260
2019-02-12T09:51:39.313Z,260
2019-02-12T09:52:39.540Z,265
2019-02-12T09:53:39.517Z,255
2019-02-12T09:54:39.527Z,265
2019-02-12T09:55:39.485Z,280
2019-02-12T09:56:39.481Z,240
2019-02-12T09:57:39.202Z,225
2019-02-12T09:58:39.201Z,280
2019-02-12T09:59:39.427Z,285
2019-02-12T10:00:39.156Z,260
2019-02-12T10:01:39.410Z,240
2019-02-12T10:02:39.375Z,255
2019-02-12T10:03:39.351Z,285
2019-02-12T10:04:39.335Z,315
2019-02-12T10:05:39.310Z,330
2019-02-12T10:06:39.050Z,315
2019-02-12T10:07:39.732Z,315
2019-02-12T10:08:39.265Z,280
2019-02-12T10:09:39.249Z,285
2019-02-12T10:10:39.284Z,280
2019-02-12T10:11:39.210Z,280
2019-02-12T10:12:39.280Z,290
2019-02-12T10:13:39.252Z,305
2019-02-12T10:14:38.922Z,295
2019-02-12T10:15:39.143Z,290
2019-02-12T10:16:39.117Z,285
2019-02-12T10:17:39.103Z,285
2019-02-12T10:18:38.844Z,290
2019-02-12T10:19:39.067Z,310
2019-02-12T10:20:39.053Z,295
2019-02-12T10:21:39.062Z,265
2019-02-12T10:22:38.709Z,250
2019-02-12T10:23:39.040Z,270
2019-02-12T10:24:39.047Z,285
2019-02-12T10:25:38.966Z,290
2019-02-12T10:26:38.767Z,295
2019-02-12T10:27:38.787Z,300
2019-02-12T10:28:48.364Z,305
2019-02-12T10:29:38.899Z,300
2019-02-12T10:30:38.883Z,310
2019-02-12T10:31:38.873Z,305
2019-02-12T10:32:38.628Z,305
2019-02-12T10:33:38.835Z,285
2019-02-12T10:34:38.817Z,260
2019-02-12T10:35:38.811Z,265
2019-02-12T10:36:38.783Z,275
2019-02-12T10:37:38.756Z,280
2019-02-12T10:38:38.502Z,255
2019-02-12T10:39:38.754Z,215
2019-02-12T10:40:38.458Z,205
2019-02-12T10:41:38.712Z,235
2019-02-12T10:42:38.686Z,240
2019-02-12T10:43:38.660Z,235
2019-02-12T10:44:38.640Z,195
2019-02-12T10:45:38.410Z,220
2019-02-12T10:46:38.611Z,275
2019-02-12T10:47:38.640Z,240
2019-02-12T10:48:38.582Z,200
2019-02-12T10:49:38.558Z,195
2019-02-12T10:50:38.297Z,210
2019-02-12T10:51:38.527Z,250
2019-02-12T10:52:38.270Z,245
2019-02-12T10:53:38.453Z,230
2019-02-12T10:54:38.498Z,230
2019-02-12T10:55:38.514Z,235
2019-02-12T10:56:38.435Z,255
2019-02-12T10:57:38.419Z,265
2019-02-12T10:58:38.161Z,280
2019-02-12T10:59:38.387Z,295
2019-02-12T11:00:38.117Z,285
2019-02-12T11:01:38.351Z,290
2019-02-12T11:02:38.364Z,300
2019-02-12T11:03:38.319Z,315
2019-02-12T11:04:38.292Z,320
2019-02-12T11:05:38.283Z,325
2019-02-12T11:06:38.015Z,315
2019-02-12T11:07:38.244Z,305
2019-02-12T11:08:38.474Z,290
2019-02-12T11:09:38.206Z,285
2019-02-12T11:10:38.191Z,285
2019-02-12T11:11:38.171Z,285
2019-02-12T11:12:37.907Z,280
2019-02-12T11:13:38.155Z,275
2019-02-12T11:14:38.138Z,305
2019-02-12T11:15:37.854Z,305
2019-02-12T11:16:38.084Z,300
2019-02-12T11:17:38.081Z,340
2019-02-12T11:18:38.063Z,340
2019-02-12T11:19:37.784Z,355
2019-02-12T11:20:37.773Z,365
2019-02-12T11:21:38.010Z,365
2019-02-12T11:22:37.993Z,385
2019-02-12T11:23:37.978Z,400
2019-02-12T11:24:44.600Z,335
2019-02-12T11:25:37.938Z,305
2019-02-12T11:26:37.923Z,310
2019-02-12T11:27:37.905Z,330
2019-02-12T11:28:37.888Z,335
2019-02-12T11:29:37.875Z,320
2019-02-12T11:30:37.852Z,310
2019-02-12T11:31:37.842Z,305
2019-02-12T11:32:37.587Z,305
2019-02-12T11:33:37.820Z,285
2019-02-12T11:34:37.795Z,275
2019-02-12T11:35:39.321Z,270
2019-02-12T11:36:37.758Z,245
2019-02-12T11:37:37.510Z,250
2019-02-12T11:38:37.727Z,280
2019-02-12T11:39:37.721Z,275
2019-02-12T11:40:37.454Z,300
2019-02-12T11:41:38.561Z,320
2019-02-12T11:42:37.662Z,305
2019-02-12T11:43:37.634Z,325
2019-02-12T11:44:37.377Z,355
2019-02-12T11:45:37.608Z,315
2019-02-12T11:46:37.609Z,295
2019-02-12T11:47:37.574Z,290
2019-02-12T11:48:37.560Z,260
2019-02-12T11:49:37.585Z,275
2019-02-12T11:50:37.533Z,280
2019-02-12T11:51:37.531Z,295
2019-02-12T11:52:37.497Z,265
2019-02-12T11:53:37.622Z,290
2019-02-12T11:54:43.531Z,300
2019-02-12T11:55:37.446Z,305
2019-02-12T11:56:37.440Z,300
2019-02-12T11:57:37.164Z,295
2019-02-12T11:58:37.154Z,240
2019-02-12T11:59:37.383Z,175
2019-02-12T12:00:37.365Z,155
2019-02-12T12:01:37.347Z,155
2019-02-12T12:02:44.434Z,200
2019-02-12T12:03:37.315Z,195
2019-02-12T12:04:37.298Z,220
2019-02-12T12:05:37.290Z,220
2019-02-12T12:06:37.264Z,220
2019-02-12T12:07:37.255Z,220
2019-02-12T12:08:36.987Z,210
2019-02-12T12:09:37.219Z,205
2019-02-12T12:10:37.212Z,180
2019-02-12T12:11:37.190Z,170
2019-02-12T12:12:37.169Z,135
2019-02-12T12:13:37.161Z,110
2019-02-12T12:14:37.141Z,105
2019-02-12T12:15:37.114Z,115
2019-02-12T12:16:36.873Z,120
2019-02-12T12:17:37.085Z,125
2019-02-12T12:18:36.582Z,150
2019-02-12T12:19:37.055Z,155
2019-02-12T12:20:37.039Z,140
2019-02-12T12:21:37.021Z,120
2019-02-12T12:22:37.006Z,120
2019-02-12T12:23:36.738Z,140
2019-02-12T12:24:36.965Z,155
2019-02-12T12:25:36.952Z,180
2019-02-12T12:26:36.932Z,210
2019-02-12T12:27:36.457Z,220
2019-02-12T12:28:36.891Z,225
2019-02-12T12:29:36.876Z,230
2019-02-12T12:30:36.371Z,225
2019-02-12T12:31:36.866Z,200
2019-02-12T12:32:36.828Z,200
2019-02-12T12:33:36.815Z,245
2019-02-12T12:34:36.794Z,270
2019-02-12T12:35:36.786Z,295
2019-02-12T12:36:36.768Z,285
2019-02-12T12:37:36.748Z,280
2019-02-12T12:38:36.735Z,265
2019-02-12T12:39:36.706Z,265
2019-02-12T12:40:36.701Z,285
2019-02-12T12:41:36.678Z,285
2019-02-12T12:42:36.655Z,270
2019-02-12T12:43:37.021Z,265
2019-02-12T12:44:36.379Z,270
2019-02-12T12:45:36.615Z,260
2019-02-12T12:46:36.594Z,260
2019-02-12T12:47:36.109Z,265
2019-02-12T12:48:36.311Z,255
2019-02-12T12:49:36.926Z,240
2019-02-12T12:50:36.319Z,240
2019-02-12T12:51:36.531Z,275
2019-02-12T12:52:36.518Z,275
2019-02-12T12:53:36.479Z,270
2019-02-12T12:54:36.237Z,275
2019-02-12T12:55:36.441Z,265
2019-02-12T12:56:36.443Z,255
2019-02-12T12:57:44.430Z,250
2019-02-12T12:58:36.171Z,240
2019-02-12T12:59:36.385Z,235
2019-02-12T13:00:36.108Z,225
2019-02-12T13:01:36.119Z,220
2019-02-12T13:02:36.346Z,210
2019-02-12T13:03:36.311Z,200
2019-02-12T13:04:36.343Z,175
2019-02-12T13:05:36.285Z,175
2019-02-12T13:06:36.055Z,185
2019-02-12T13:07:36.249Z,190
2019-02-12T13:08:35.993Z,190
2019-02-12T13:09:35.963Z,185
2019-02-12T13:10:36.195Z,185
2019-02-12T13:11:36.065Z,185
2019-02-12T13:12:37.197Z,190
2019-02-12T13:13:36.142Z,200
2019-02-12T13:14:36.126Z,185
2019-02-12T13:15:36.117Z,150
2019-02-12T13:16:35.846Z,130
2019-02-12T13:17:36.085Z,105
2019-02-12T13:18:36.122Z,100
2019-02-12T13:19:35.797Z,100
2019-02-12T13:20:36.022Z,125
2019-02-12T13:21:35.770Z,145
2019-02-12T13:22:35.998Z,145
2019-02-12T13:23:35.978Z,155
2019-02-12T13:24:35.969Z,180
2019-02-12T13:25:35.944Z,155
2019-02-12T13:26:35.677Z,140
2019-02-12T13:27:35.904Z,140
2019-02-12T13:28:35.890Z,150
2019-02-12T13:29:35.872Z,140
2019-02-12T13:30:35.853Z,130
2019-02-12T13:31:35.879Z,110
2019-02-12T13:32:35.326Z,95
2019-02-12T13:33:36.197Z,75
2019-02-12T13:34:35.544Z,75
2019-02-12T13:35:35.775Z,85
2019-02-12T13:36:35.507Z,80
2019-02-12T13:37:35.493Z,85
2019-02-12T13:38:35.476Z,105
2019-02-12T13:39:35.708Z,130
2019-02-12T13:40:35.682Z,140
2019-02-12T13:41:35.432Z,150
2019-02-12T13:42:35.651Z,145
2019-02-12T13:43:35.640Z,160
2019-02-12T13:44:35.359Z,180
2019-02-12T13:45:35.597Z,195
2019-02-12T13:46:35.585Z,195
2019-02-12T13:47:35.569Z,200
2019-02-12T13:48:35.548Z,200
2019-02-12T13:49:35.530Z,205
2019-02-12T13:50:35.517Z,185
2019-02-12T13:51:35.491Z,160
2019-02-12T13:52:35.475Z,135
2019-02-12T13:53:35.210Z,100
2019-02-12T13:54:35.446Z,85
2019-02-12T13:55:35.423Z,90
2019-02-12T13:56:35.416Z,110
2019-02-12T13:57:35.144Z,130
2019-02-12T13:58:35.376Z,145
2019-02-12T13:59:36.018Z,130
2019-02-12T14:00:35.090Z,120
2019-02-12T14:01:35.324Z,120
2019-02-12T14:02:35.066Z,125
2019-02-12T14:03:35.485Z,130
2019-02-12T14:04:35.271Z,140
2019-02-12T14:05:34.681Z,150
2019-02-12T14:06:34.745Z,150
2019-02-12T14:07:35.261Z,140
2019-02-12T14:08:35.196Z,125
2019-02-12T14:09:35.182Z,120
2019-02-12T14:10:35.160Z,110
2019-02-12T14:11:34.650Z,95
2019-02-12T14:12:34.892Z,85
2019-02-12T14:13:35.117Z,80
2019-02-12T14:14:35.095Z,80
2019-02-12T14:15:35.091Z,100
2019-02-12T14:16:34.813Z,135
2019-02-12T14:17:35.046Z,135